Terminal Aerodrome Forecast
Issued by NWS

Home | Current Version | Previous Version | Text Only | Print | Product List | Glossary On
Versions: 1 2 3 4 5 6 7 8 9 10 11 12 13 14 15
000
FTUS46 KSEW 012300 RRA
TAFBLI
TAF
KBLI 012351Z 0200/0224 17005KT P6SM SCT060 BKN080
     FM020200 17005KT P6SM SCT030 BKN250
     FM020900 16005KT P6SM BKN030 OVC100
     FM021400 17008KT P6SM BKN015
     FM021800 17010KT P6SM BKN025
     FM022000 18008KT P6SM -SHRA OVC025=

USA.gov is the U.S. government's official web portal to all federal, state and local government web resources and services.